createdAt,value
2023-04-28T00:01:28.602Z,10.28
2023-04-28T00:03:56.837Z,10.69
2023-04-28T00:06:23.599Z,9.82
2023-04-28T00:08:50.252Z,9.96
2023-04-28T00:11:16.912Z,10.20
2023-04-28T00:13:43.497Z,9.79
2023-04-28T00:16:10.115Z,10.07
2023-04-28T00:18:36.792Z,9.79
2023-04-28T00:21:03.516Z,9.62
2023-04-28T00:23:30.070Z,9.96
2023-04-28T00:25:57.522Z,9.83
2023-04-28T00:30:53.624Z,9.71
2023-04-28T00:33:20.196Z,9.39
2023-04-28T00:35:46.805Z,9.57
2023-04-28T00:38:13.404Z,9.32
2023-04-28T00:40:40.078Z,9.29
2023-04-28T00:43:06.933Z,9.05
2023-04-28T00:45:33.579Z,9.19
2023-04-28T00:48:00.892Z,9.46
2023-04-28T00:50:28.350Z,9.30
2023-04-28T00:52:55.278Z,9.34
2023-04-28T00:55:22.477Z,9.42
2023-04-28T00:57:49.686Z,9.33
2023-04-28T01:00:16.648Z,9.46
2023-04-28T01:02:43.423Z,9.74
2023-04-28T01:05:11.381Z,9.08
2023-04-28T01:07:38.188Z,9.16
2023-04-28T01:10:05.050Z,9.40
2023-04-28T01:12:32.022Z,9.24
2023-04-28T01:14:59.694Z,9.40
2023-04-28T01:17:27.309Z,9.58
2023-04-28T01:19:53.928Z,9.38
2023-04-28T01:22:20.662Z,9.40
2023-04-28T01:24:47.242Z,9.74
2023-04-28T01:27:13.882Z,9.56
2023-04-28T01:29:40.988Z,9.34
2023-04-28T01:32:07.650Z,9.45
2023-04-28T01:34:34.297Z,9.78
2023-04-28T01:37:01.179Z,8.91
2023-04-28T01:39:27.857Z,9.43
2023-04-28T01:41:54.456Z,9.10
2023-04-28T01:44:21.065Z,9.36
2023-04-28T01:46:47.648Z,9.04
2023-04-28T01:49:14.269Z,9.73
2023-04-28T01:51:42.412Z,8.98
2023-04-28T01:54:09.123Z,9.03
2023-04-28T01:56:36.137Z,9.26
2023-04-28T01:59:02.730Z,8.89
2023-04-28T02:01:29.361Z,8.66
2023-04-28T02:03:56.320Z,8.79
2023-04-28T02:06:23.121Z,8.75
2023-04-28T02:08:49.750Z,9.28
2023-04-28T02:11:16.377Z,8.84
2023-04-28T02:13:43.060Z,9.05
2023-04-28T02:16:09.681Z,8.85
2023-04-28T02:18:36.344Z,9.09
2023-04-28T02:21:13.055Z,8.61
2023-04-28T02:23:40.825Z,8.26
2023-04-28T02:26:07.455Z,8.47
2023-04-28T02:28:34.077Z,8.68
2023-04-28T02:31:08.024Z,8.64
2023-04-28T02:33:35.617Z,9.11
2023-04-28T02:36:04.380Z,8.81
2023-04-28T02:38:31.505Z,8.90
2023-04-28T02:41:05.925Z,8.65
2023-04-28T02:43:33.321Z,8.86
2023-04-28T02:46:00.794Z,8.85
2023-04-28T02:48:27.404Z,8.67
2023-04-28T02:50:53.995Z,8.75
2023-04-28T02:53:21.361Z,8.24
2023-04-28T02:55:48.397Z,8.70
2023-04-28T02:58:15.251Z,8.70
2023-04-28T03:00:41.901Z,8.65
2023-04-28T03:03:08.585Z,9.01
2023-04-28T03:05:35.289Z,8.31
2023-04-28T03:08:02.044Z,8.54
2023-04-28T03:10:28.640Z,8.49
2023-04-28T03:12:55.418Z,8.43
2023-04-28T03:15:22.070Z,8.62
2023-04-28T03:17:48.794Z,8.56
2023-04-28T03:20:15.520Z,8.94
2023-04-28T03:22:42.357Z,8.70
2023-04-28T03:25:09.192Z,8.93
2023-04-28T03:27:35.958Z,9.09
2023-04-28T03:30:02.556Z,8.39
2023-04-28T03:32:29.230Z,8.67
2023-04-28T03:34:56.080Z,8.73
2023-04-28T03:37:22.700Z,8.58
2023-04-28T03:39:49.353Z,8.84
2023-04-28T03:42:16.124Z,8.46
2023-04-28T03:44:42.734Z,8.63
2023-04-28T03:47:09.862Z,8.70
2023-04-28T03:49:36.522Z,8.84
2023-04-28T03:52:04.348Z,8.83
2023-04-28T03:54:31.237Z,8.79
2023-04-28T03:56:58.027Z,9.44
2023-04-28T03:59:24.737Z,9.03
2023-04-28T04:01:51.322Z,8.98
2023-04-28T04:04:18.560Z,8.83
2023-04-28T04:06:45.600Z,9.21
2023-04-28T04:09:12.248Z,9.40
2023-04-28T04:11:38.845Z,9.07
2023-04-28T04:14:06.388Z,8.97
2023-04-28T04:16:33.116Z,9.12
2023-04-28T04:18:59.707Z,9.33
2023-04-28T04:21:27.874Z,9.70
2023-04-28T04:23:54.507Z,8.76
2023-04-28T04:26:21.380Z,9.56
2023-04-28T04:28:47.957Z,9.42
2023-04-28T04:31:15.282Z,9.81
2023-04-28T04:33:42.326Z,9.40
2023-04-28T04:36:09.124Z,9.15
2023-04-28T04:38:35.802Z,9.69
2023-04-28T04:41:02.404Z,9.56
2023-04-28T04:43:28.992Z,9.40
2023-04-28T04:45:55.664Z,9.71
2023-04-28T04:48:22.553Z,9.74
2023-04-28T04:50:49.290Z,9.58
2023-04-28T04:53:16.590Z,9.89
2023-04-28T04:55:43.763Z,9.81
2023-04-28T04:58:10.610Z,9.85
2023-04-28T05:00:37.810Z,9.93
2023-04-28T05:03:06.384Z,9.24
2023-04-28T05:05:33.278Z,9.50
2023-04-28T05:08:00.125Z,9.52
2023-04-28T05:10:27.416Z,10.08
2023-04-28T05:12:54.299Z,10.34
2023-04-28T05:15:21.144Z,10.20
2023-04-28T05:17:48.029Z,10.62
2023-04-28T05:20:15.041Z,10.41
2023-04-28T05:22:41.821Z,10.54
2023-04-28T05:25:09.182Z,11.07
2023-04-28T05:27:39.169Z,11.08
2023-04-28T05:30:10.452Z,11.11
2023-04-28T05:32:38.002Z,11.00
2023-04-28T05:35:05.085Z,11.16
2023-04-28T05:37:31.691Z,11.28
2023-04-28T05:39:58.269Z,11.45
2023-04-28T05:42:24.864Z,11.92
2023-04-28T05:44:51.442Z,11.83
2023-04-28T05:47:18.076Z,11.91
2023-04-28T05:49:44.766Z,12.25
2023-04-28T05:52:11.396Z,11.99
2023-04-28T05:54:37.994Z,12.29
2023-04-28T05:57:04.995Z,12.43
2023-04-28T05:59:31.771Z,12.50
2023-04-28T06:01:58.425Z,12.67
2023-04-28T06:04:26.515Z,13.01
2023-04-28T06:06:53.449Z,12.34
2023-04-28T06:09:20.306Z,13.27
2023-04-28T06:11:46.986Z,13.11
2023-04-28T06:14:13.594Z,13.43
2023-04-28T06:16:40.310Z,13.39
2023-04-28T06:19:06.982Z,13.32
2023-04-28T06:21:33.661Z,13.73
2023-04-28T06:24:01.884Z,13.98
2023-04-28T06:26:29.029Z,14.23
2023-04-28T06:28:55.821Z,14.30
2023-04-28T06:31:22.605Z,14.06
2023-04-28T06:33:49.207Z,14.86
2023-04-28T06:36:18.031Z,14.89
2023-04-28T06:38:45.957Z,15.38
2023-04-28T06:41:12.691Z,14.95
2023-04-28T06:43:39.353Z,15.92
2023-04-28T06:46:06.119Z,15.46
2023-04-28T06:48:32.745Z,15.81
2023-04-28T06:50:59.328Z,15.43
2023-04-28T06:53:25.915Z,15.77
2023-04-28T06:55:52.939Z,16.27
2023-04-28T06:58:20.906Z,15.84
2023-04-28T07:00:47.749Z,17.08
2023-04-28T07:03:14.557Z,17.60
2023-04-28T07:05:41.328Z,18.56
2023-04-28T07:08:08.042Z,17.93
2023-04-28T07:10:34.652Z,18.20
2023-04-28T07:13:01.660Z,18.09
2023-04-28T07:15:28.698Z,18.34
2023-04-28T07:17:55.562Z,18.67
2023-04-28T07:20:22.185Z,19.14
2023-04-28T07:22:48.796Z,19.52
2023-04-28T07:25:15.453Z,19.07
2023-04-28T07:27:42.085Z,19.79
2023-04-28T07:30:24.948Z,19.53
2023-04-28T07:32:53.800Z,20.20
2023-04-28T07:35:20.491Z,19.97
2023-04-28T07:37:47.285Z,20.43
2023-04-28T07:40:14.244Z,20.41
2023-04-28T07:42:41.142Z,20.24
2023-04-28T07:45:08.382Z,19.73
2023-04-28T07:47:35.383Z,20.82
2023-04-28T07:50:05.127Z,20.89
2023-04-28T07:52:32.657Z,20.76
2023-04-28T07:55:00.164Z,20.51
2023-04-28T07:57:26.773Z,20.79
2023-04-28T07:59:53.427Z,20.52
2023-04-28T08:02:20.717Z,20.62
2023-04-28T08:04:47.803Z,19.83
2023-04-28T08:07:14.761Z,20.28
2023-04-28T08:09:44.094Z,20.21
2023-04-28T08:12:10.778Z,21.18
2023-04-28T08:14:37.374Z,20.58
2023-04-28T08:17:04.147Z,21.29
2023-04-28T08:19:31.066Z,20.94
2023-04-28T08:21:57.667Z,19.97
2023-04-28T08:24:24.265Z,21.61
2023-04-28T08:26:50.977Z,20.88
2023-04-28T08:29:17.652Z,20.62
2023-04-28T08:31:44.286Z,22.66
2023-04-28T08:34:11.327Z,22.30
2023-04-28T08:36:37.974Z,22.69
2023-04-28T08:39:08.463Z,22.05
2023-04-28T08:41:39.317Z,21.90
2023-04-28T08:44:10.056Z,23.00
2023-04-28T08:46:44.113Z,22.52
2023-04-28T08:49:16.548Z,23.18
2023-04-28T08:51:50.974Z,23.50
2023-04-28T08:54:26.237Z,23.64
2023-04-28T08:56:54.334Z,25.12
2023-04-28T08:59:21.449Z,24.72
2023-04-28T09:01:51.552Z,26.21
2023-04-28T09:04:18.965Z,24.12
2023-04-28T09:06:46.523Z,24.83
2023-04-28T09:09:19.124Z,24.09
2023-04-28T09:12:02.563Z,24.67
2023-04-28T09:14:35.392Z,25.66
2023-04-28T09:17:03.413Z,24.84
2023-04-28T09:19:36.050Z,25.92
2023-04-28T09:22:10.504Z,25.51
2023-04-28T09:24:44.793Z,25.83
2023-04-28T09:27:11.623Z,26.23
2023-04-28T09:29:39.165Z,26.23
2023-04-28T09:32:20.704Z,26.44
2023-04-28T09:34:49.693Z,26.50
2023-04-28T09:37:22.445Z,25.47
2023-04-28T09:39:51.923Z,26.36
2023-04-28T09:42:41.314Z,26.93
2023-04-28T09:45:12.576Z,27.36
2023-04-28T09:47:42.545Z,26.02
2023-04-28T09:50:14.287Z,25.87
2023-04-28T09:52:42.206Z,26.79
2023-04-28T09:55:09.262Z,27.17
2023-04-28T09:57:37.044Z,26.82
2023-04-28T10:00:06.311Z,27.15
2023-04-28T10:05:09.624Z,23.02
2023-04-28T10:07:37.579Z,23.23
2023-04-28T10:10:05.367Z,23.29
2023-04-28T10:12:32.848Z,23.93
2023-04-28T10:15:00.201Z,23.39
2023-04-28T10:17:29.427Z,22.55
2023-04-28T10:19:57.142Z,23.41
2023-04-28T10:22:51.203Z,22.59
2023-04-28T10:25:30.145Z,20.25
2023-04-28T10:27:58.662Z,18.71
2023-04-28T10:30:29.568Z,18.56
2023-04-28T10:33:09.355Z,18.77
2023-04-28T10:35:40.406Z,18.33
2023-04-28T10:38:21.923Z,18.19
2023-04-28T10:40:50.451Z,18.36
2023-04-28T10:43:27.107Z,17.59
2023-04-28T10:45:56.578Z,16.96
2023-04-28T10:48:46.456Z,17.87
2023-04-28T10:51:16.423Z,17.35
2023-04-28T10:53:46.755Z,18.08
2023-04-28T10:56:26.483Z,17.79
2023-04-28T10:58:53.065Z,17.44
2023-04-28T11:01:24.136Z,17.15
2023-04-28T11:04:00.740Z,16.33
2023-04-28T11:06:28.924Z,16.82
2023-04-28T11:08:58.624Z,15.93
2023-04-28T11:11:29.205Z,15.79
2023-04-28T11:14:19.107Z,16.53
2023-04-28T11:17:03.970Z,15.07
2023-04-28T11:19:33.539Z,15.63
2023-04-28T11:22:03.208Z,16.37
2023-04-28T11:24:31.118Z,16.50
2023-04-28T11:26:59.151Z,17.37
2023-04-28T11:29:39.821Z,15.59
2023-04-28T11:32:08.474Z,16.72
2023-04-28T11:34:36.439Z,17.90
2023-04-28T11:37:04.085Z,18.74
2023-04-28T11:39:32.773Z,17.98
2023-04-28T11:42:02.361Z,18.78
2023-04-28T11:44:31.257Z,19.02
2023-04-28T11:47:01.012Z,19.41
2023-04-28T11:49:30.596Z,19.90
2023-04-28T11:52:05.815Z,18.63
2023-04-28T11:54:32.999Z,17.31
2023-04-28T11:57:07.281Z,16.03
2023-04-28T11:59:35.539Z,13.63
2023-04-28T12:02:04.827Z,13.80
2023-04-28T12:04:42.958Z,13.57
2023-04-28T12:07:18.450Z,13.37
2023-04-28T12:09:47.133Z,13.03
2023-04-28T12:12:18.314Z,12.62
2023-04-28T12:15:05.514Z,11.97
2023-04-28T12:17:40.090Z,11.85
2023-04-28T12:20:09.028Z,11.57
2023-04-28T12:22:50.532Z,11.39
2023-04-28T12:25:19.418Z,11.40
2023-04-28T12:28:03.976Z,11.34
2023-04-28T12:30:33.324Z,10.98
2023-04-28T12:33:00.097Z,9.94
2023-04-28T12:35:28.414Z,9.86
2023-04-28T12:37:56.901Z,8.25
2023-04-28T12:40:24.313Z,7.55
2023-04-28T12:42:51.480Z,7.35
2023-04-28T12:45:18.334Z,6.40
2023-04-28T12:47:44.990Z,5.04
2023-04-28T12:50:11.956Z,4.93
2023-04-28T12:52:38.590Z,4.85
2023-04-28T12:55:05.699Z,4.49
2023-04-28T12:57:32.426Z,4.47
2023-04-28T12:59:59.030Z,4.14
2023-04-28T13:02:25.875Z,4.20
2023-04-28T13:04:53.000Z,4.67
2023-04-28T13:07:19.813Z,4.60
2023-04-28T13:09:47.737Z,3.63
2023-04-28T13:12:14.997Z,3.88
2023-04-28T13:14:41.960Z,3.93
2023-04-28T13:17:10.072Z,4.02
2023-04-28T13:19:36.957Z,4.20
2023-04-28T13:22:05.161Z,3.97
2023-04-28T13:24:33.514Z,4.33
2023-04-28T13:27:00.441Z,4.88
2023-04-28T13:29:27.028Z,5.63
2023-04-28T13:31:53.823Z,5.63
2023-04-28T13:34:20.474Z,5.86
2023-04-28T13:36:48.225Z,6.23
2023-04-28T13:39:15.018Z,6.37
2023-04-28T13:41:42.362Z,6.76
2023-04-28T13:44:09.518Z,6.81
2023-04-28T13:46:36.396Z,7.09
2023-04-28T13:49:03.528Z,6.59
2023-04-28T13:51:32.648Z,6.57
2023-04-28T13:53:59.265Z,6.72
2023-04-28T13:56:25.879Z,7.11
2023-04-28T13:58:52.825Z,6.84
2023-04-28T14:01:19.488Z,6.78
2023-04-28T14:03:46.298Z,6.02
2023-04-28T14:06:13.131Z,5.91
2023-04-28T14:08:39.903Z,5.81
2023-04-28T14:11:06.533Z,4.89
2023-04-28T14:13:33.407Z,4.05
2023-04-28T14:16:00.174Z,4.06
2023-04-28T14:18:29.756Z,4.00
2023-04-28T14:20:56.443Z,3.77
2023-04-28T14:23:23.165Z,3.88
2023-04-28T14:25:50.269Z,3.81
2023-04-28T14:28:17.480Z,3.73
2023-04-28T14:30:44.223Z,4.13
2023-04-28T14:33:10.901Z,4.10
2023-04-28T14:35:37.560Z,4.63
2023-04-28T14:38:04.339Z,4.84
2023-04-28T14:40:31.408Z,4.83
2023-04-28T14:42:58.063Z,4.94
2023-04-28T14:45:24.995Z,5.20
2023-04-28T14:47:51.798Z,5.94
2023-04-28T14:50:18.734Z,6.37
2023-04-28T14:52:45.871Z,7.70
2023-04-28T14:55:13.580Z,8.09
2023-04-28T14:57:40.255Z,8.69
2023-04-28T15:00:07.932Z,9.57
2023-04-28T15:02:36.348Z,9.89
2023-04-28T15:05:03.767Z,9.66
2023-04-28T15:07:33.672Z,10.13
2023-04-28T15:10:00.992Z,10.24
2023-04-28T15:12:30.421Z,10.06
2023-04-28T15:14:57.931Z,9.74
2023-04-28T15:17:24.821Z,10.22
2023-04-28T15:19:51.976Z,10.53
2023-04-28T15:22:18.785Z,10.26
2023-04-28T15:24:45.643Z,10.78
2023-04-28T15:27:12.278Z,11.20
2023-04-28T15:29:39.140Z,10.89
2023-04-28T15:32:06.766Z,10.92
2023-04-28T15:34:33.793Z,10.31
2023-04-28T15:37:00.939Z,11.45
2023-04-28T15:39:28.395Z,11.44
2023-04-28T15:41:56.058Z,11.13
2023-04-28T15:44:23.143Z,9.97
2023-04-28T15:46:51.804Z,9.81
2023-04-28T15:49:18.848Z,10.40
2023-04-28T15:51:45.745Z,9.75
2023-04-28T15:54:13.051Z,9.29
2023-04-28T15:56:39.836Z,9.45
2023-04-28T15:59:06.801Z,8.77
2023-04-28T16:01:33.387Z,9.39
2023-04-28T16:04:00.442Z,10.07
2023-04-28T16:06:27.243Z,9.99
2023-04-28T16:08:54.161Z,11.10
2023-04-28T16:11:21.340Z,11.98
2023-04-28T16:13:47.985Z,12.52
2023-04-28T16:16:14.673Z,12.73
2023-04-28T16:18:41.783Z,12.75
2023-04-28T16:21:08.444Z,12.80
2023-04-28T16:23:35.032Z,12.83
2023-04-28T16:26:01.706Z,13.26
2023-04-28T16:28:28.349Z,13.34
2023-04-28T16:30:55.022Z,13.26
2023-04-28T16:33:21.636Z,13.33
2023-04-28T16:35:57.231Z,13.43
2023-04-28T16:38:23.867Z,12.80
2023-04-28T16:40:51.274Z,12.61
2023-04-28T16:43:18.449Z,13.53
2023-04-28T16:45:45.519Z,13.69
2023-04-28T16:48:12.284Z,13.80
2023-04-28T16:50:41.007Z,13.90
2023-04-28T16:53:08.664Z,13.97
2023-04-28T16:55:38.338Z,13.75
2023-04-28T16:58:05.519Z,12.48
2023-04-28T17:00:32.551Z,12.30
2023-04-28T17:02:59.363Z,11.15
2023-04-28T17:05:26.139Z,11.00
2023-04-28T17:07:54.970Z,10.83
2023-04-28T17:10:22.471Z,10.90
2023-04-28T17:12:49.234Z,10.12
2023-04-28T17:15:19.120Z,9.31
2023-04-28T17:17:50.027Z,8.94
2023-04-28T17:20:19.448Z,8.34
2023-04-28T17:22:47.074Z,8.10
2023-04-28T17:25:13.936Z,7.09
2023-04-28T17:27:41.009Z,5.04
2023-04-28T17:30:11.421Z,3.39
2023-04-28T17:32:38.368Z,3.09
2023-04-28T17:35:05.985Z,2.95
2023-04-28T17:37:34.151Z,3.33
2023-04-28T17:40:01.518Z,3.36
2023-04-28T17:42:31.400Z,3.03
2023-04-28T17:44:58.028Z,3.44
2023-04-28T17:47:24.655Z,3.63
2023-04-28T17:49:51.845Z,3.52
2023-04-28T17:52:18.651Z,3.93
2023-04-28T17:54:45.312Z,11.49
2023-04-28T17:57:13.027Z,6.02
2023-04-28T17:59:40.633Z,5.31
2023-04-28T18:02:10.619Z,6.09
2023-04-28T18:04:37.833Z,6.33
2023-04-28T18:07:07.216Z,6.63
2023-04-28T18:09:33.796Z,7.11
2023-04-28T18:12:02.930Z,7.73
2023-04-28T18:14:29.913Z,7.70
2023-04-28T18:16:56.850Z,8.05
2023-04-28T18:19:25.784Z,8.37
2023-04-28T18:21:54.929Z,9.39
2023-04-28T18:24:21.528Z,9.83
2023-04-28T18:26:48.142Z,10.34
2023-04-28T18:29:15.034Z,11.19
2023-04-28T18:31:42.446Z,11.57
2023-04-28T18:34:09.426Z,12.51
2023-04-28T18:36:36.098Z,13.62
2023-04-28T18:39:06.299Z,14.11
2023-04-28T18:41:34.527Z,14.59
2023-04-28T18:44:01.692Z,14.24
2023-04-28T18:46:29.522Z,14.44
2023-04-28T18:48:56.716Z,14.50
2023-04-28T18:51:23.478Z,15.43
2023-04-28T18:53:50.164Z,15.86
2023-04-28T18:56:17.249Z,16.83
2023-04-28T18:58:43.998Z,17.04
2023-04-28T19:01:15.561Z,17.10
2023-04-28T19:03:43.020Z,17.05
2023-04-28T19:06:11.062Z,18.56
2023-04-28T19:08:42.770Z,18.48
2023-04-28T19:11:09.606Z,17.88
2023-04-28T19:13:37.570Z,18.61
2023-04-28T19:16:05.198Z,18.86
2023-04-28T19:18:33.077Z,20.25
2023-04-28T19:21:06.133Z,20.10
2023-04-28T19:23:32.711Z,20.53
2023-04-28T19:25:59.934Z,21.55
2023-04-28T19:28:26.811Z,20.32
2023-04-28T19:30:55.031Z,20.70
2023-04-28T19:33:27.944Z,21.29
2023-04-28T19:35:55.297Z,22.50
2023-04-28T19:38:23.333Z,22.52
2023-04-28T19:40:53.366Z,23.24
2023-04-28T19:43:20.063Z,23.30
2023-04-28T19:45:47.100Z,24.69
2023-04-28T19:48:14.452Z,25.45
2023-04-28T19:50:42.115Z,25.82
2023-04-28T19:53:09.420Z,27.30
2023-04-28T19:55:36.854Z,27.57
2023-04-28T19:58:05.927Z,27.05
2023-04-28T20:00:32.872Z,28.02
2023-04-28T20:03:01.150Z,28.03
2023-04-28T20:05:28.856Z,29.75
2023-04-28T20:07:56.467Z,31.74
2023-04-28T20:10:23.855Z,31.78
2023-04-28T20:12:50.748Z,30.73
2023-04-28T20:15:18.110Z,31.42
2023-04-28T20:17:45.889Z,32.13
2023-04-28T20:20:12.927Z,34.70
2023-04-28T20:22:43.279Z,34.65
2023-04-28T20:25:10.862Z,36.13
2023-04-28T20:27:37.760Z,36.03
2023-04-28T20:30:05.158Z,36.30
2023-04-28T20:32:31.961Z,37.49
2023-04-28T20:34:59.265Z,37.73
2023-04-28T20:37:26.484Z,36.44
2023-04-28T20:39:53.491Z,38.16
2023-04-28T20:42:20.184Z,37.31
2023-04-28T20:44:47.013Z,36.72
2023-04-28T20:47:14.073Z,37.28
2023-04-28T20:49:41.022Z,36.64
2023-04-28T20:52:08.295Z,39.26
2023-04-28T20:54:36.167Z,38.32
2023-04-28T20:57:06.528Z,40.29
2023-04-28T20:59:33.450Z,39.47
2023-04-28T21:02:00.399Z,39.52
2023-04-28T21:04:28.057Z,40.70
2023-04-28T21:06:55.463Z,40.88
2023-04-28T21:09:24.909Z,39.85
2023-04-28T21:11:51.684Z,39.36
2023-04-28T21:14:18.345Z,40.79
2023-04-28T21:16:45.039Z,41.99
2023-04-28T21:19:11.679Z,43.05
2023-04-28T21:21:38.756Z,43.20
2023-04-28T21:24:06.116Z,43.90
2023-04-28T21:26:33.006Z,45.12
2023-04-28T21:28:59.925Z,44.28
2023-04-28T21:31:26.666Z,43.84
2023-04-28T21:33:53.528Z,41.54
2023-04-28T21:36:20.185Z,38.87
2023-04-28T21:38:46.816Z,38.95
2023-04-28T21:41:13.530Z,36.95
2023-04-28T21:43:40.495Z,36.81
2023-04-28T21:46:07.289Z,35.51
2023-04-28T21:48:34.010Z,34.90
2023-04-28T21:51:01.263Z,33.11
2023-04-28T21:53:28.681Z,32.73
2023-04-28T21:55:55.432Z,32.19
2023-04-28T21:58:22.083Z,31.02
2023-04-28T22:00:48.930Z,30.83
2023-04-28T22:03:16.262Z,31.62
2023-04-28T22:05:44.883Z,31.64
2023-04-28T22:08:12.900Z,32.42
2023-04-28T22:10:39.922Z,30.63
2023-04-28T22:13:06.782Z,29.06
2023-04-28T22:15:33.677Z,28.52
2023-04-28T22:18:00.443Z,27.30
2023-04-28T22:20:27.224Z,27.35
2023-04-28T22:22:54.189Z,25.64
2023-04-28T22:25:21.367Z,25.73
2023-04-28T22:27:47.995Z,24.64
2023-04-28T22:30:15.572Z,24.73
2023-04-28T22:32:46.853Z,24.92
2023-04-28T22:35:14.241Z,25.07
2023-04-28T22:37:40.931Z,25.74
2023-04-28T22:40:08.785Z,25.24
2023-04-28T22:42:36.958Z,25.29
2023-04-28T22:45:04.311Z,25.38
2023-04-28T22:47:31.008Z,26.56
2023-04-28T22:49:57.588Z,25.06
2023-04-28T22:52:24.555Z,25.57
2023-04-28T22:54:51.120Z,24.86
2023-04-28T22:57:17.783Z,25.38
2023-04-28T22:59:44.478Z,24.89
2023-04-28T23:02:13.527Z,24.79
2023-04-28T23:04:41.054Z,24.32
2023-04-28T23:07:08.345Z,23.35
2023-04-28T23:09:36.205Z,24.43
2023-04-28T23:12:04.156Z,23.64
2023-04-28T23:14:32.248Z,23.65
2023-04-28T23:16:59.167Z,24.00
2023-04-28T23:19:26.122Z,23.76
2023-04-28T23:21:52.756Z,23.56
2023-04-28T23:24:19.414Z,23.99
2023-04-28T23:26:46.189Z,24.29
2023-04-28T23:29:12.870Z,24.23
2023-04-28T23:31:39.965Z,25.05
2023-04-28T23:34:06.868Z,24.44
2023-04-28T23:36:33.608Z,25.07
2023-04-28T23:39:01.573Z,26.45
2023-04-28T23:41:28.524Z,26.78
2023-04-28T23:43:55.212Z,28.74
2023-04-28T23:46:22.009Z,28.03
2023-04-28T23:48:48.592Z,29.37
2023-04-28T23:51:15.523Z,29.77
2023-04-28T23:53:42.328Z,30.44
2023-04-28T23:56:08.971Z,30.15
2023-04-28T23:58:35.606Z,30.06
